Hong Xiang 2 — BYBA — position and weather

sailwx.info

Track history (hours):
 
Tides and Currents Weather Stations Pressure Air Temp Water Temp Dewpoint Dewpoint Depression Visibility Wind Speed Wind Dir Waves Ship Positions

Hong Xiang 2

Last reported at 2016-Jul-22 20:07 UTC. Time now 2016-Jul-27 21:08 UTC.
Position N 36°38' E 122°16'.

Length 96 m; draft 4.8 m.

Type: Ship (hazmat cat A). MMSI: 413413000.

Date/timePositionNaut miles runAvg speedWind from/ knotsBaromVisibWave heightAir tempDewpointWater temp
2016-Jul-22 20:07N 36°38' E 122°16'611.2
2016-Jul-22 19:33N 36°42' E 122°22'1212.1
2016-Jul-22 18:33N 36°50' E 122°33'1212.1
2016-Jul-22 17:33N 36°58' E 122°44'1611.8
2016-Jul-22 16:14N 37°14' E 122°47'20 9.7
2016-Jul-22 14:10N 37°32' E 122°37'610.3
2016-Jul-22 13:33N 37°34' E 122°29'1110.7
2016-Jul-22 12:33N 37°38' E 122°17'7110.2
2016-Jul-22 05:33N 37°59' E 120°50'9 9.4
2016-Jul-22 04:33N 38°01' E 120°39'10 9.6
2016-Jul-22 03:33N 38°01' E 120°26'  
2016-Jul-18 05:31N 38°03' E 119°59'1111.9
2016-Jul-18 04:33N 38°03' E 120°14'1212.3
2016-Jul-18 03:33N 38°04' E 120°29'1212.5
2016-Jul-18 02:33N 38°01' E 120°45'1212.2
2016-Jul-18 01:32N 37°59' E 121°00'4711.1
2016-Jul-17 21:18N 37°46' E 121°58'1010.8
2016-Jul-17 20:20N 37°43' E 122°10'911.0
2016-Jul-17 19:33N 37°41' E 122°21'31 9.4
2016-Jul-17 16:15N 37°22' E 122°52'6 9.2
2016-Jul-17 15:33N 37°16' E 122°52'9 9.2
2016-Jul-17 14:33N 37°07' E 122°52'10 9.6
2016-Jul-17 13:33N 36°57' E 122°52'1010.4
2016-Jul-17 12:33N 36°47' E 122°52'37310.3
2016-Jul-16 00:24N 30°34' E 122°54'48 9.8
2016-Jul-15 19:30N 29°47' E 122°39'21 9.6
2016-Jul-15 17:20N 29°29' E 122°28'32410.7
2016-Jul-14 11:04N 24°60' E 119°04'9 5.4
2016-Jul-14 09:29N 25°03' E 118°55'0 0.0
2016-Jul-13 12:10N 25°03' E 118°55'  
Track history (hours):
 
Tides and Currents Weather Stations Pressure Air Temp Water Temp Dewpoint Dewpoint Depression Visibility Wind Speed Wind Dir Waves Ship Positions

Hong Xiang 2

Last reported at 2016-Jul-22 20:07 UTC. Time now 2016-Jul-27 21:08 UTC.
Position N 36°38' E 122°16'.

Length 96 m; draft 4.8 m.

Type: Ship (hazmat cat A). MMSI: 413413000.

Date/timePositionNaut miles runAvg speedWind from/ knotsBaromVisibWave heightAir tempDewpointWater temp
2016-Jul-22 20:07N 36°38' E 122°16'611.2
2016-Jul-22 19:33N 36°42' E 122°22'1212.1
2016-Jul-22 18:33N 36°50' E 122°33'1212.1
2016-Jul-22 17:33N 36°58' E 122°44'1611.8
2016-Jul-22 16:14N 37°14' E 122°47'20 9.7
2016-Jul-22 14:10N 37°32' E 122°37'610.3
2016-Jul-22 13:33N 37°34' E 122°29'1110.7
2016-Jul-22 12:33N 37°38' E 122°17'7110.2
2016-Jul-22 05:33N 37°59' E 120°50'9 9.4
2016-Jul-22 04:33N 38°01' E 120°39'10 9.6
2016-Jul-22 03:33N 38°01' E 120°26'  
2016-Jul-18 05:31N 38°03' E 119°59'1111.9
2016-Jul-18 04:33N 38°03' E 120°14'1212.3
2016-Jul-18 03:33N 38°04' E 120°29'1212.5
2016-Jul-18 02:33N 38°01' E 120°45'1212.2
2016-Jul-18 01:32N 37°59' E 121°00'4711.1
2016-Jul-17 21:18N 37°46' E 121°58'1010.8
2016-Jul-17 20:20N 37°43' E 122°10'911.0
2016-Jul-17 19:33N 37°41' E 122°21'31 9.4
2016-Jul-17 16:15N 37°22' E 122°52'6 9.2
2016-Jul-17 15:33N 37°16' E 122°52'9 9.2
2016-Jul-17 14:33N 37°07' E 122°52'10 9.6
2016-Jul-17 13:33N 36°57' E 122°52'1010.4
2016-Jul-17 12:33N 36°47' E 122°52'37310.3
2016-Jul-16 00:24N 30°34' E 122°54'48 9.8
2016-Jul-15 19:30N 29°47' E 122°39'21 9.6
2016-Jul-15 17:20N 29°29' E 122°28'32410.7
2016-Jul-14 11:04N 24°60' E 119°04'9 5.4
2016-Jul-14 09:29N 25°03' E 118°55'0 0.0
2016-Jul-13 12:10N 25°03' E 118°55'  

Dump ship's entire track history